(°C)
(°C)
SE
SE
SE
ESE
ESE
ESE
E
(km/h)
11-22
11-23
11-23
11-23
11-24
12-25
12-26
(mm)
0
0
0
0
0
0
0
(%)
0
0
0
0
0
0
0

Élévation du soleil

/ -25.4°
sun-icon
UV 1
05:59
18:19
Gibbeuse décroissante (209°)
18:45
08:53

METAR pour 64.6°N 40.72°E (ULAA)

Heure Conditions Température/
Point de rosée
Vent Visibilité Météo Nuages Pression Changement Brut
MVFR 7°C / 5°C 180º variable 130º to 200º 4kt >10km - Overcast 1100ft 1015 No Significant change. Runway 08: Wet or puddles, 51-100% contamination with <1mm, friction coefficient 0.60. ULAA 232030Z 18002MPS 130V200 9999 OVC011 07/05 Q1015 R08/290060 NOSIG RMK QFE760/1014
MVFR 7°C / 5°C 170º variable 110º to 220º 4kt >10km - Overcast 1100ft 1015 No Significant change. Runway 08: Wet or puddles, 51-100% contamination with <1mm, friction coefficient 0.60. ULAA 232000Z 17002MPS 110V220 9999 OVC011 07/05 Q1015 R08/290060 NOSIG RMK QFE760/1014
MVFR 7°C / 5°C 180º variable 130º to 220º 4kt >10km - Overcast 1200ft 1015 No Significant change. Runway 08: Wet or puddles, 51-100% contamination with <1mm, friction coefficient 0.60. ULAA 231930Z 18002MPS 130V220 9999 OVC012 07/05 Q1015 R08/290060 NOSIG RMK QFE760/1014
MVFR 7°C / 5°C 170º variable 100º to 250º 4kt >10km - Overcast 1200ft 1015 No Significant change. Runway 08: Wet or puddles, 51-100% contamination with <1mm, friction coefficient 0.60. ULAA 231900Z 17002MPS 100V250 9999 OVC012 07/05 Q1015 R08/290060 NOSIG RMK QFE760/1014
MVFR 7°C / 5°C 180º variable 120º to 220º 6kt >10km - Overcast 1400ft 1015 No Significant change. Runway 08: Wet or puddles, 51-100% contamination with <1mm, friction coefficient 0.60. ULAA 231830Z 18003MPS 120V220 9999 OVC014 07/05 Q1015 R08/290060 NOSIG RMK QFE761/1014
MVFR 7°C / 5°C 180º variable 130º to 220º 6kt >10km Light Rain 1.00mm precipitation Vertical Visibility of 0ft. 1016 No Significant change. Runway 08: Wet or puddles, 51-100% contamination with <1mm, friction coefficient 0.60. ULAA 231800Z 18003MPS 130V220 9999 -RA OVC014 07/05 Q1016 R08/290060 NOSIG RMK QFE761/1014
MVFR 7°C / 5°C 170º variable 120º to 220º 6kt >10km - Overcast 1700ft 1016 No Significant change. Runway 08: Damp, 51-100% contamination with <1mm, friction coefficient 0.65. ULAA 231730Z 17003MPS 120V220 9999 OVC017 07/05 Q1016 R08/190065 NOSIG RMK QFE761/1015
MVFR 7°C / 5°C 160º variable 120º to 220º 6kt >10km Light Rain 1.00mm precipitation Vertical Visibility of 0ft. 1016 No Significant change. Runway 08: Damp, 51-100% contamination with <1mm, friction coefficient 0.65. ULAA 231700Z 16003MPS 120V220 9999 -RA OVC016 07/05 Q1016 R08/190065 NOSIG RMK QFE761/1015
MVFR 7°C / 5°C 170º variable 090º to 210º 6kt >10km - Overcast 1700ft 1016 No Significant change ULAA 231630Z 17003MPS 090V210 9999 OVC017 07/05 Q1016 R08/CLRD70 NOSIG RMK QFE761/1015
MVFR 7°C / 4°C 170º variable 110º to 220º 8kt >10km - Overcast 1900ft 1016 No Significant change ULAA 231600Z 17004MPS 110V220 9999 OVC019 07/04 Q1016 R08/CLRD70 NOSIG RMK QFE761/1015
MVFR 7°C / 4°C 160º variable 100º to 210º 6kt >10km - Overcast 2300ft 1016 No Significant change ULAA 231530Z 16003MPS 100V210 9999 OVC023 07/04 Q1016 R08/CLRD70 NOSIG RMK QFE761/1015
MVFR 8°C / 4°C 160º variable 120º to 240º 8kt >10km - Overcast 2300ft 1016 No Significant change ULAA 231500Z 16004MPS 120V240 9999 OVC023 08/04 Q1016 R08/CLRD70 NOSIG RMK QFE761/1015
MVFR 8°C / 4°C 150º variable 100º to 200º 6kt >10km - Overcast 2100ft 1017 No Significant change ULAA 231430Z 15003MPS 100V200 9999 OVC021 08/04 Q1017 R08/CLRD70 NOSIG RMK QFE761/1015
MVFR 8°C / 4°C 150º variable 120º to 200º 10kt >10km - Overcast 2100ft 1017 No Significant change ULAA 231400Z 15005MPS 120V200 9999 OVC021 08/04 Q1017 R08/CLRD70 NOSIG RMK QFE761/1015
MVFR 8°C / 4°C 170º variable 110º to 230º 6kt >10km - Overcast 1900ft 1017 No Significant change ULAA 231330Z 17003MPS 110V230 9999 OVC019 08/04 Q1017 R08/CLRD70 NOSIG RMK QFE762/1016
MVFR 8°C / 4°C 180º variable 130º to 240º 8kt >10km - Overcast 1900ft 1017 No Significant change ULAA 231300Z 18004MPS 130V240 9999 OVC019 08/04 Q1017 R08/CLRD70 NOSIG RMK QFE762/1016
MVFR 8°C / 4°C 150º variable 110º to 200º 10kt >10km - Overcast 2200ft 1017 No Significant change ULAA 231230Z 15005MPS 110V200 9999 OVC022 08/04 Q1017 R08/CLRD70 NOSIG RMK QFE762/1016
VFR 8°C / 4°C 150º variable 100º to 210º 10kt >10km - Overcast 3600ft 1018 No Significant change ULAA 231200Z 15005MPS 100V210 9999 OVC036 08/04 Q1018 R08/CLRD70 NOSIG RMK QFE762/1016
VFR 8°C / 4°C 170º variable 120º to 210º 8kt Gust 19kt >10km - Overcast 3800ft 1018 No Significant change ULAA 231130Z 17004G10MPS 120V210 9999 OVC038 08/04 Q1018 R08/CLRD70 NOSIG RMK QFE762/1016
VFR 9°C / 4°C 160º variable 100º to 210º 10kt >10km - Overcast 3800ft 1018 No Significant change ULAA 231100Z 16005MPS 100V210 9999 OVC038 09/04 Q1018 R08/CLRD70 NOSIG RMK QFE762/1017
VFR 9°C / 3°C 170º variable 110º to 220º 10kt Gust 19kt >10km - Broken Clouds 4000ft 1018 No Significant change ULAA 231030Z 17005G10MPS 110V220 9999 BKN040 09/03 Q1018 R08/CLRD70 NOSIG RMK QFE763/1017
VFR 9°C / 3°C 170º variable 090º to 220º 10kt >10km - Few Clouds 2000ft 1018 No Significant change ULAA 231000Z 17005MPS 090V220 9999 FEW020 09/03 Q1018 R08/CLRD70 NOSIG RMK QFE763/1017
VFR 9°C / 3°C 150º variable 100º to 190º 10kt >10km - Few Clouds 2000ft 1019 No Significant change ULAA 230930Z 15005MPS 100V190 9999 FEW020 09/03 Q1019 R08/CLRD70 NOSIG RMK QFE763/1017
VFR 9°C / 3°C 170º variable 100º to 220º 8kt >10km - Few Clouds 2000ft 1019 No Significant change ULAA 230900Z 17004MPS 100V220 9999 FEW020 09/03 Q1019 R08/CLRD70 NOSIG RMK QFE763/1018

MVFR

7°C / 5°C

[Plus]
Vent 180º variable 130º to 200º 4kt
Visibilité >10km
Météo -
Nuages Overcast 1100ft
Pression 1015
Changement No Significant change. Runway 08: Wet or puddles, 51-100% contamination with <1mm, friction coefficient 0.60.
Brut ULAA 232030Z 18002MPS 130V200 9999 OVC011 07/05 Q1015 R08/290060 NOSIG RMK QFE760/1014

MVFR

7°C / 5°C

[Plus]
Vent 170º variable 110º to 220º 4kt
Visibilité >10km
Météo -
Nuages Overcast 1100ft
Pression 1015
Changement No Significant change. Runway 08: Wet or puddles, 51-100% contamination with <1mm, friction coefficient 0.60.
Brut ULAA 232000Z 17002MPS 110V220 9999 OVC011 07/05 Q1015 R08/290060 NOSIG RMK QFE760/1014

MVFR

7°C / 5°C

[Plus]
Vent 180º variable 130º to 220º 4kt
Visibilité >10km
Météo -
Nuages Overcast 1200ft
Pression 1015
Changement No Significant change. Runway 08: Wet or puddles, 51-100% contamination with <1mm, friction coefficient 0.60.
Brut ULAA 231930Z 18002MPS 130V220 9999 OVC012 07/05 Q1015 R08/290060 NOSIG RMK QFE760/1014

MVFR

7°C / 5°C

[Plus]
Vent 170º variable 100º to 250º 4kt
Visibilité >10km
Météo -
Nuages Overcast 1200ft
Pression 1015
Changement No Significant change. Runway 08: Wet or puddles, 51-100% contamination with <1mm, friction coefficient 0.60.
Brut ULAA 231900Z 17002MPS 100V250 9999 OVC012 07/05 Q1015 R08/290060 NOSIG RMK QFE760/1014

MVFR

7°C / 5°C

[Plus]
Vent 180º variable 120º to 220º 6kt
Visibilité >10km
Météo -
Nuages Overcast 1400ft
Pression 1015
Changement No Significant change. Runway 08: Wet or puddles, 51-100% contamination with <1mm, friction coefficient 0.60.
Brut ULAA 231830Z 18003MPS 120V220 9999 OVC014 07/05 Q1015 R08/290060 NOSIG RMK QFE761/1014

MVFR

7°C / 5°C

[Plus]
Vent 180º variable 130º to 220º 6kt
Visibilité >10km
Météo Light Rain 1.00mm precipitation
Nuages Vertical Visibility of 0ft.
Pression 1016
Changement No Significant change. Runway 08: Wet or puddles, 51-100% contamination with <1mm, friction coefficient 0.60.
Brut ULAA 231800Z 18003MPS 130V220 9999 -RA OVC014 07/05 Q1016 R08/290060 NOSIG RMK QFE761/1014

MVFR

7°C / 5°C

[Plus]
Vent 170º variable 120º to 220º 6kt
Visibilité >10km
Météo -
Nuages Overcast 1700ft
Pression 1016
Changement No Significant change. Runway 08: Damp, 51-100% contamination with <1mm, friction coefficient 0.65.
Brut ULAA 231730Z 17003MPS 120V220 9999 OVC017 07/05 Q1016 R08/190065 NOSIG RMK QFE761/1015

MVFR

7°C / 5°C

[Plus]
Vent 160º variable 120º to 220º 6kt
Visibilité >10km
Météo Light Rain 1.00mm precipitation
Nuages Vertical Visibility of 0ft.
Pression 1016
Changement No Significant change. Runway 08: Damp, 51-100% contamination with <1mm, friction coefficient 0.65.
Brut ULAA 231700Z 16003MPS 120V220 9999 -RA OVC016 07/05 Q1016 R08/190065 NOSIG RMK QFE761/1015

MVFR

7°C / 5°C

[Plus]
Vent 170º variable 090º to 210º 6kt
Visibilité >10km
Météo -
Nuages Overcast 1700ft
Pression 1016
Changement No Significant change
Brut ULAA 231630Z 17003MPS 090V210 9999 OVC017 07/05 Q1016 R08/CLRD70 NOSIG RMK QFE761/1015

MVFR

7°C / 4°C

[Plus]
Vent 170º variable 110º to 220º 8kt
Visibilité >10km
Météo -
Nuages Overcast 1900ft
Pression 1016
Changement No Significant change
Brut ULAA 231600Z 17004MPS 110V220 9999 OVC019 07/04 Q1016 R08/CLRD70 NOSIG RMK QFE761/1015

MVFR

7°C / 4°C

[Plus]
Vent 160º variable 100º to 210º 6kt
Visibilité >10km
Météo -
Nuages Overcast 2300ft
Pression 1016
Changement No Significant change
Brut ULAA 231530Z 16003MPS 100V210 9999 OVC023 07/04 Q1016 R08/CLRD70 NOSIG RMK QFE761/1015

MVFR

8°C / 4°C

[Plus]
Vent 160º variable 120º to 240º 8kt
Visibilité >10km
Météo -
Nuages Overcast 2300ft
Pression 1016
Changement No Significant change
Brut ULAA 231500Z 16004MPS 120V240 9999 OVC023 08/04 Q1016 R08/CLRD70 NOSIG RMK QFE761/1015

MVFR

8°C / 4°C

[Plus]
Vent 150º variable 100º to 200º 6kt
Visibilité >10km
Météo -
Nuages Overcast 2100ft
Pression 1017
Changement No Significant change
Brut ULAA 231430Z 15003MPS 100V200 9999 OVC021 08/04 Q1017 R08/CLRD70 NOSIG RMK QFE761/1015

MVFR

8°C / 4°C

[Plus]
Vent 150º variable 120º to 200º 10kt
Visibilité >10km
Météo -
Nuages Overcast 2100ft
Pression 1017
Changement No Significant change
Brut ULAA 231400Z 15005MPS 120V200 9999 OVC021 08/04 Q1017 R08/CLRD70 NOSIG RMK QFE761/1015

MVFR

8°C / 4°C

[Plus]
Vent 170º variable 110º to 230º 6kt
Visibilité >10km
Météo -
Nuages Overcast 1900ft
Pression 1017
Changement No Significant change
Brut ULAA 231330Z 17003MPS 110V230 9999 OVC019 08/04 Q1017 R08/CLRD70 NOSIG RMK QFE762/1016

MVFR

8°C / 4°C

[Plus]
Vent 180º variable 130º to 240º 8kt
Visibilité >10km
Météo -
Nuages Overcast 1900ft
Pression 1017
Changement No Significant change
Brut ULAA 231300Z 18004MPS 130V240 9999 OVC019 08/04 Q1017 R08/CLRD70 NOSIG RMK QFE762/1016

MVFR

8°C / 4°C

[Plus]
Vent 150º variable 110º to 200º 10kt
Visibilité >10km
Météo -
Nuages Overcast 2200ft
Pression 1017
Changement No Significant change
Brut ULAA 231230Z 15005MPS 110V200 9999 OVC022 08/04 Q1017 R08/CLRD70 NOSIG RMK QFE762/1016

VFR

8°C / 4°C

[Plus]
Vent 150º variable 100º to 210º 10kt
Visibilité >10km
Météo -
Nuages Overcast 3600ft
Pression 1018
Changement No Significant change
Brut ULAA 231200Z 15005MPS 100V210 9999 OVC036 08/04 Q1018 R08/CLRD70 NOSIG RMK QFE762/1016

VFR

8°C / 4°C

[Plus]
Vent 170º variable 120º to 210º 8kt Gust 19kt
Visibilité >10km
Météo -
Nuages Overcast 3800ft
Pression 1018
Changement No Significant change
Brut ULAA 231130Z 17004G10MPS 120V210 9999 OVC038 08/04 Q1018 R08/CLRD70 NOSIG RMK QFE762/1016

VFR

9°C / 4°C

[Plus]
Vent 160º variable 100º to 210º 10kt
Visibilité >10km
Météo -
Nuages Overcast 3800ft
Pression 1018
Changement No Significant change
Brut ULAA 231100Z 16005MPS 100V210 9999 OVC038 09/04 Q1018 R08/CLRD70 NOSIG RMK QFE762/1017

VFR

9°C / 3°C

[Plus]
Vent 170º variable 110º to 220º 10kt Gust 19kt
Visibilité >10km
Météo -
Nuages Broken Clouds 4000ft
Pression 1018
Changement No Significant change
Brut ULAA 231030Z 17005G10MPS 110V220 9999 BKN040 09/03 Q1018 R08/CLRD70 NOSIG RMK QFE763/1017

VFR

9°C / 3°C

[Plus]
Vent 170º variable 090º to 220º 10kt
Visibilité >10km
Météo -
Nuages Few Clouds 2000ft
Pression 1018
Changement No Significant change
Brut ULAA 231000Z 17005MPS 090V220 9999 FEW020 09/03 Q1018 R08/CLRD70 NOSIG RMK QFE763/1017

VFR

9°C / 3°C

[Plus]
Vent 150º variable 100º to 190º 10kt
Visibilité >10km
Météo -
Nuages Few Clouds 2000ft
Pression 1019
Changement No Significant change
Brut ULAA 230930Z 15005MPS 100V190 9999 FEW020 09/03 Q1019 R08/CLRD70 NOSIG RMK QFE763/1017

VFR

9°C / 3°C

[Plus]
Vent 170º variable 100º to 220º 8kt
Visibilité >10km
Météo -
Nuages Few Clouds 2000ft
Pression 1019
Changement No Significant change
Brut ULAA 230900Z 17004MPS 100V220 9999 FEW020 09/03 Q1019 R08/CLRD70 NOSIG RMK QFE763/1018

TAF pour 64.6°N 40.72°E (ULAA)

From till


From till Wind 170º 6kt. Visibility 10km or more. Broken Clouds 1100ft.
Temporarly from till Wind 150º 6kt. Gust 19kt. Visibility 6000m. Light Showers Rain . Broken Clouds 700ft. Broken Clouds 1600ft.
Temporarly from till Wind 170º 10kt. Gust 27kt. Visibility 4000m. Light Showers Rain . Broken Clouds 500ft. Broken Clouds 1600ft.

Brut: TAF COR ULAA 232000Z 2321/2421 17003MPS 9999 BKN011 TEMPO 2321/2409 15003G10MPS 6000 -SHRA BKN007 BKN016CB TEMPO 2409/2421 17005G14MPS 4000 -SHRA BKN005 BKN016CB

Les images satellites et les pluies actuelles pour 64.6°N 40.72°E

Le marqueur est placé sur 64.6°N 40.72°E. [Plus]

L'image satellite en temps réel combine la lumière visible pendant la journée et le rayonnement infrarouge pendant la nuit. La nuit, l'image n'est pas sombre car le rayonnement infrarouge permet de détecter les différences de température. Malheureusement, les nuages bas et le brouillard sont difficiles à distinguer des températures au sol et peuvent donc être presque invisibles pendant la nuit. Les images des satellites Météosat pour l'Europe sont mises à jour en temps réel toutes les 5 minutes. Les images GOES-16/GOES-17 (Amérique du Nord et du Sud) et Himawari (Asie) sont mises à jour toutes les 10 minutes.

Copyright 2021 EUMETSAT / meteoblue. / Copyright 2021 meteoblue

Radar et prévision de précipitation à court terme pour 64.6°N 40.72°E

Bruine
Légère
Modéré
Fort
Très fort
Grêle

Le marqueur est placé sur 64.6°N 40.72°E. Cette animation montre le Radar des précipitations pour les dernières heures, ainsi qu'une 1h prévision. La bruine ou les légères chutes de neiges peuvent ne pas être détectées par le radar. L'intensité des précipitations est visible avec un code couleur allant du bleu clair au orange.